BON101 FAOR-FACT
Flight info
| Callsign | BON101 |
|---|---|
| Flight time | N/A |
| Altitude | 40000 |
| Route | RAGUL1D RAGUL UQ10 DUMDO UZ26 ERDAS ERDAS1B |
| Aircraft | A346/H-SDE2E3FGHIJ3J4J5M1RWXY/LB1D1 |
Departure
| Time | N/A |
|---|---|
| Airport | O.R. Tambo International Airport (FAOR) |
Arrival
| Time | 2026-05-06 18:38 |
|---|---|
| Airport | Cape Town International Airport (FACT) |
| Time | Latitude | Longitude | Altitude | Speed | Heading |
|---|---|---|---|---|---|
| 2026-05-06 17:12 | -27.42682 | 26.50273 | 40042 ft | 445 kts | 236° |
| 2026-05-06 17:13 | -27.44884 | 26.47819 | 40026 ft | 445 kts | 236° |
| 2026-05-06 17:13 | -27.49292 | 26.42899 | 40032 ft | 445 kts | 236° |
| 2026-05-06 17:14 | -27.53674 | 26.38005 | 40036 ft | 445 kts | 236° |
| 2026-05-06 17:14 | -27.58077 | 26.33078 | 40031 ft | 445 kts | 236° |
| 2026-05-06 17:15 | -27.62476 | 26.28152 | 40033 ft | 445 kts | 236° |
| 2026-05-06 17:15 | -27.66880 | 26.23213 | 40032 ft | 445 kts | 236° |
| 2026-05-06 17:16 | -27.70534 | 26.19113 | 40033 ft | 445 kts | 236° |
| 2026-05-06 17:16 | -27.74933 | 26.14168 | 40030 ft | 445 kts | 236° |
| 2026-05-06 17:17 | -27.79303 | 26.09253 | 40027 ft | 446 kts | 236° |
| 2026-05-06 17:17 | -27.83703 | 26.04295 | 40027 ft | 446 kts | 236° |
| 2026-05-06 17:18 | -27.88111 | 25.99324 | 40018 ft | 446 kts | 236° |
| 2026-05-06 17:18 | -27.92488 | 25.94380 | 40025 ft | 446 kts | 235° |
| 2026-05-06 17:19 | -27.96894 | 25.89399 | 40024 ft | 447 kts | 235° |
| 2026-05-06 17:19 | -28.02008 | 25.83610 | 40030 ft | 447 kts | 235° |
| 2026-05-06 17:20 | -28.06419 | 25.78611 | 40027 ft | 448 kts | 235° |
| 2026-05-06 17:20 | -28.10830 | 25.73604 | 40030 ft | 448 kts | 235° |
| 2026-05-06 17:21 | -28.15253 | 25.68579 | 40021 ft | 448 kts | 235° |
| 2026-05-06 17:21 | -28.19636 | 25.63590 | 40031 ft | 449 kts | 234° |
| 2026-05-06 17:22 | -28.24046 | 25.58568 | 40024 ft | 449 kts | 234° |
| 2026-05-06 17:22 | -28.28468 | 25.53523 | 40025 ft | 449 kts | 234° |
| 2026-05-06 17:23 | -28.32857 | 25.48513 | 40020 ft | 450 kts | 234° |
| 2026-05-06 17:23 | -28.37277 | 25.43459 | 40019 ft | 450 kts | 234° |
| 2026-05-06 17:24 | -28.41702 | 25.38394 | 40018 ft | 450 kts | 234° |
| 2026-05-06 17:24 | -28.46089 | 25.33364 | 40019 ft | 450 kts | 234° |
| 2026-05-06 17:25 | -28.50440 | 25.28313 | 40030 ft | 440 kts | 230° |
| 2026-05-06 17:25 | -28.54750 | 25.23388 | 40015 ft | 438 kts | 230° |
| 2026-05-06 17:26 | -28.59026 | 25.18491 | 40010 ft | 438 kts | 230° |
| 2026-05-06 17:26 | -28.63323 | 25.13549 | 40005 ft | 438 kts | 230° |
| 2026-05-06 17:27 | -28.67616 | 25.08601 | 40001 ft | 438 kts | 230° |
| 2026-05-06 17:27 | -28.71877 | 25.03682 | 39993 ft | 438 kts | 230° |
| 2026-05-06 17:28 | -28.76170 | 24.98719 | 39988 ft | 439 kts | 230° |
| 2026-05-06 17:28 | -28.80503 | 24.93702 | 39989 ft | 439 kts | 230° |
| 2026-05-06 17:29 | -28.84791 | 24.88732 | 39986 ft | 439 kts | 230° |
| 2026-05-06 17:29 | -28.89074 | 24.83760 | 39989 ft | 439 kts | 230° |
| 2026-05-06 17:30 | -28.93368 | 24.78771 | 39989 ft | 439 kts | 230° |
| 2026-05-06 17:30 | -28.97635 | 24.73806 | 39988 ft | 439 kts | 229° |
| 2026-05-06 17:31 | -29.01923 | 24.68810 | 39985 ft | 439 kts | 229° |
| 2026-05-06 17:31 | -29.06216 | 24.63802 | 39982 ft | 440 kts | 229° |
| 2026-05-06 17:32 | -29.14432 | 24.54203 | 39977 ft | 439 kts | 229° |
| 2026-05-06 17:33 | -29.18714 | 24.49189 | 39976 ft | 439 kts | 229° |
| 2026-05-06 17:33 | -29.22959 | 24.44212 | 39977 ft | 439 kts | 229° |
| 2026-05-06 17:34 | -29.27239 | 24.39189 | 39973 ft | 439 kts | 229° |
| 2026-05-06 17:34 | -29.31520 | 24.34158 | 39969 ft | 439 kts | 229° |
| 2026-05-06 17:35 | -29.35064 | 24.29988 | 39970 ft | 439 kts | 229° |
| 2026-05-06 17:35 | -29.39308 | 24.24990 | 39966 ft | 439 kts | 229° |
| 2026-05-06 17:36 | -29.46396 | 24.16626 | 39967 ft | 438 kts | 229° |
| 2026-05-06 17:36 | -29.50656 | 24.11591 | 39966 ft | 438 kts | 229° |
| 2026-05-06 17:37 | -29.54909 | 24.06557 | 39968 ft | 438 kts | 229° |
| 2026-05-06 17:37 | -29.59156 | 24.01525 | 39966 ft | 438 kts | 229° |
| 2026-05-06 17:38 | -29.63374 | 23.96519 | 39962 ft | 438 kts | 229° |
| 2026-05-06 17:38 | -29.66313 | 23.93028 | 39963 ft | 438 kts | 229° |
| 2026-05-06 17:39 | -29.70561 | 23.87976 | 39959 ft | 438 kts | 229° |
| 2026-05-06 17:39 | -29.74802 | 23.82926 | 39962 ft | 438 kts | 229° |
| 2026-05-06 17:40 | -29.79043 | 23.77870 | 39961 ft | 438 kts | 229° |
| 2026-05-06 17:40 | -29.83287 | 23.72804 | 39962 ft | 438 kts | 229° |
| 2026-05-06 17:41 | -29.87499 | 23.67768 | 39963 ft | 438 kts | 229° |
| 2026-05-06 17:41 | -29.91733 | 23.62700 | 39963 ft | 438 kts | 229° |
| 2026-05-06 17:42 | -29.95974 | 23.57618 | 39965 ft | 438 kts | 229° |
| 2026-05-06 17:42 | -30.00181 | 23.52570 | 39965 ft | 438 kts | 229° |
| 2026-05-06 17:43 | -30.04410 | 23.47488 | 39966 ft | 438 kts | 229° |
| 2026-05-06 17:43 | -30.08639 | 23.42401 | 39967 ft | 438 kts | 229° |
| 2026-05-06 17:44 | -30.12868 | 23.37306 | 39968 ft | 438 kts | 229° |
| 2026-05-06 17:44 | -30.17094 | 23.32208 | 39967 ft | 438 kts | 229° |
| 2026-05-06 17:45 | -30.21289 | 23.27140 | 39970 ft | 438 kts | 229° |
| 2026-05-06 17:45 | -30.25508 | 23.22037 | 39974 ft | 438 kts | 229° |
| 2026-05-06 17:46 | -30.29704 | 23.16954 | 39968 ft | 438 kts | 229° |
| 2026-05-06 17:46 | -30.33926 | 23.11833 | 39973 ft | 438 kts | 229° |
| 2026-05-06 17:47 | -30.38106 | 23.06757 | 39975 ft | 437 kts | 229° |
| 2026-05-06 17:47 | -30.42311 | 23.01643 | 39971 ft | 437 kts | 228° |
| 2026-05-06 17:48 | -30.46509 | 22.96530 | 39983 ft | 437 kts | 228° |
| 2026-05-06 17:48 | -30.50710 | 22.91408 | 39980 ft | 437 kts | 228° |
| 2026-05-06 17:49 | -30.54916 | 22.86273 | 39984 ft | 437 kts | 228° |
| 2026-05-06 17:49 | -30.59090 | 22.81170 | 39992 ft | 437 kts | 228° |
| 2026-05-06 17:50 | -30.63297 | 22.76020 | 39989 ft | 437 kts | 228° |
| 2026-05-06 17:50 | -30.67487 | 22.70883 | 39991 ft | 437 kts | 228° |
| 2026-05-06 17:51 | -30.71674 | 22.65743 | 39996 ft | 437 kts | 228° |
| 2026-05-06 17:51 | -30.75835 | 22.60628 | 39996 ft | 437 kts | 228° |
| 2026-05-06 17:52 | -30.80016 | 22.55482 | 39996 ft | 436 kts | 228° |
| 2026-05-06 17:52 | -30.84192 | 22.50336 | 40003 ft | 436 kts | 228° |
| 2026-05-06 17:53 | -30.88298 | 22.45179 | 40001 ft | 436 kts | 229° |
| 2026-05-06 17:53 | -30.92392 | 22.39955 | 40005 ft | 436 kts | 229° |
| 2026-05-06 17:54 | -30.96477 | 22.34730 | 40013 ft | 435 kts | 229° |
| 2026-05-06 17:54 | -31.00554 | 22.29510 | 40010 ft | 435 kts | 229° |
| 2026-05-06 17:55 | -31.04629 | 22.24284 | 40011 ft | 435 kts | 229° |
| 2026-05-06 17:55 | -31.08705 | 22.19052 | 40013 ft | 434 kts | 229° |
| 2026-05-06 17:56 | -31.12769 | 22.13827 | 40016 ft | 434 kts | 229° |
| 2026-05-06 17:56 | -31.16807 | 22.08630 | 40016 ft | 434 kts | 229° |
| 2026-05-06 17:57 | -31.20873 | 22.03389 | 40022 ft | 434 kts | 229° |
| 2026-05-06 17:57 | -31.24945 | 21.98132 | 40025 ft | 435 kts | 229° |
| 2026-05-06 17:58 | -31.29016 | 21.92870 | 40026 ft | 436 kts | 229° |
| 2026-05-06 17:58 | -31.33065 | 21.87629 | 40033 ft | 437 kts | 229° |
| 2026-05-06 17:59 | -31.36456 | 21.83234 | 40035 ft | 437 kts | 229° |
| 2026-05-06 17:59 | -31.40559 | 21.77909 | 40036 ft | 437 kts | 229° |
| 2026-05-06 18:00 | -31.44607 | 21.72649 | 40036 ft | 437 kts | 229° |
| 2026-05-06 18:00 | -31.48684 | 21.67342 | 40035 ft | 437 kts | 229° |
| 2026-05-06 18:01 | -31.52762 | 21.62028 | 40041 ft | 437 kts | 229° |
| 2026-05-06 18:01 | -31.56815 | 21.56739 | 40040 ft | 438 kts | 229° |
| 2026-05-06 18:02 | -31.60892 | 21.51411 | 40041 ft | 438 kts | 229° |
| 2026-05-06 18:02 | -31.64971 | 21.46071 | 40045 ft | 438 kts | 229° |
| 2026-05-06 18:03 | -31.69053 | 21.40721 | 40047 ft | 438 kts | 229° |
| 2026-05-06 18:03 | -31.73124 | 21.35378 | 40046 ft | 439 kts | 229° |
| 2026-05-06 18:04 | -31.77176 | 21.30053 | 40055 ft | 439 kts | 229° |
| 2026-05-06 18:04 | -31.81937 | 21.23785 | 40059 ft | 439 kts | 229° |
| 2026-05-06 18:05 | -31.86013 | 21.18411 | 40063 ft | 439 kts | 229° |
| 2026-05-06 18:05 | -31.90059 | 21.13069 | 40062 ft | 439 kts | 229° |
| 2026-05-06 18:06 | -31.94138 | 21.07676 | 40067 ft | 440 kts | 229° |
| 2026-05-06 18:06 | -31.98210 | 21.02283 | 40068 ft | 440 kts | 229° |
| 2026-05-06 18:07 | -32.02279 | 20.96887 | 40068 ft | 440 kts | 229° |
| 2026-05-06 18:07 | -32.06323 | 20.91518 | 40074 ft | 440 kts | 229° |
| 2026-05-06 18:08 | -32.10382 | 20.86118 | 40081 ft | 440 kts | 229° |
| 2026-05-06 18:08 | -32.14454 | 20.80695 | 40083 ft | 440 kts | 229° |
| 2026-05-06 18:09 | -32.17141 | 20.77111 | 40086 ft | 440 kts | 229° |
| 2026-05-06 18:09 | -32.21884 | 20.70779 | 40089 ft | 440 kts | 229° |
| 2026-05-06 18:10 | -32.25939 | 20.65357 | 40098 ft | 440 kts | 229° |
| 2026-05-06 18:10 | -32.29988 | 20.59933 | 40101 ft | 440 kts | 229° |
| 2026-05-06 18:11 | -32.34015 | 20.54531 | 40104 ft | 440 kts | 229° |
| 2026-05-06 18:11 | -32.38074 | 20.49078 | 40109 ft | 440 kts | 229° |
| 2026-05-06 18:12 | -32.42107 | 20.43652 | 40117 ft | 440 kts | 229° |
| 2026-05-06 18:12 | -32.46161 | 20.38191 | 40110 ft | 440 kts | 229° |
| 2026-05-06 18:13 | -32.50189 | 20.32755 | 40018 ft | 442 kts | 229° |
| 2026-05-06 18:13 | -32.52225 | 20.30004 | 39532 ft | 443 kts | 228° |
| 2026-05-06 18:13 | -32.54262 | 20.27248 | 39011 ft | 443 kts | 228° |
| 2026-05-06 18:14 | -32.56298 | 20.24491 | 38382 ft | 444 kts | 228° |
| 2026-05-06 18:14 | -32.58338 | 20.21726 | 37669 ft | 445 kts | 227° |
| 2026-05-06 18:14 | -32.60386 | 20.18949 | 36923 ft | 448 kts | 227° |
| 2026-05-06 18:14 | -32.62452 | 20.16147 | 36137 ft | 452 kts | 227° |
| 2026-05-06 18:15 | -32.64533 | 20.13322 | 35340 ft | 457 kts | 227° |
| 2026-05-06 18:15 | -32.66609 | 20.10502 | 34488 ft | 457 kts | 226° |
| 2026-05-06 18:15 | -32.68696 | 20.07665 | 33656 ft | 453 kts | 226° |
| 2026-05-06 18:15 | -32.70763 | 20.04858 | 32809 ft | 447 kts | 226° |
| 2026-05-06 18:16 | -32.72811 | 20.02075 | 32279 ft | 445 kts | 226° |
| 2026-05-06 18:16 | -32.74828 | 19.99331 | 31687 ft | 445 kts | 227° |
| 2026-05-06 18:16 | -32.76855 | 19.96570 | 31127 ft | 440 kts | 227° |
| 2026-05-06 18:16 | -32.78855 | 19.93841 | 30523 ft | 435 kts | 227° |
| 2026-05-06 18:17 | -32.80834 | 19.91140 | 29880 ft | 431 kts | 227° |
| 2026-05-06 18:17 | -32.82792 | 19.88466 | 29241 ft | 425 kts | 227° |
| 2026-05-06 18:17 | -32.84724 | 19.85824 | 28638 ft | 419 kts | 227° |
| 2026-05-06 18:17 | -32.86629 | 19.83217 | 28069 ft | 414 kts | 227° |
| 2026-05-06 18:18 | -32.88504 | 19.80650 | 27653 ft | 409 kts | 227° |
| 2026-05-06 18:18 | -32.90367 | 19.78097 | 27322 ft | 407 kts | 227° |
| 2026-05-06 18:18 | -32.92223 | 19.75552 | 26959 ft | 406 kts | 227° |
| 2026-05-06 18:18 | -32.94067 | 19.73022 | 26570 ft | 402 kts | 227° |
| 2026-05-06 18:19 | -32.95894 | 19.70514 | 26221 ft | 398 kts | 227° |
| 2026-05-06 18:19 | -32.97676 | 19.68064 | 25878 ft | 395 kts | 227° |
| 2026-05-06 18:19 | -32.99470 | 19.65598 | 25528 ft | 391 kts | 227° |
| 2026-05-06 18:19 | -33.01245 | 19.63155 | 25182 ft | 388 kts | 227° |
| 2026-05-06 18:20 | -33.03005 | 19.60732 | 24832 ft | 385 kts | 228° |
| 2026-05-06 18:20 | -33.04747 | 19.58332 | 24492 ft | 381 kts | 228° |
| 2026-05-06 18:20 | -33.06480 | 19.55943 | 24161 ft | 378 kts | 228° |
| 2026-05-06 18:20 | -33.08196 | 19.53576 | 23823 ft | 375 kts | 228° |
| 2026-05-06 18:21 | -33.09900 | 19.51224 | 23409 ft | 373 kts | 228° |
| 2026-05-06 18:21 | -33.11589 | 19.48890 | 23011 ft | 370 kts | 228° |
| 2026-05-06 18:21 | -33.13267 | 19.46571 | 22612 ft | 367 kts | 228° |
| 2026-05-06 18:21 | -33.14930 | 19.44271 | 22209 ft | 365 kts | 228° |
| 2026-05-06 18:22 | -33.16584 | 19.41982 | 21817 ft | 363 kts | 228° |
| 2026-05-06 18:22 | -33.18233 | 19.39699 | 21417 ft | 361 kts | 228° |
| 2026-05-06 18:22 | -33.19871 | 19.37429 | 21028 ft | 359 kts | 228° |
| 2026-05-06 18:22 | -33.21498 | 19.35174 | 20630 ft | 358 kts | 228° |
| 2026-05-06 18:23 | -33.23123 | 19.32921 | 20236 ft | 356 kts | 228° |
| 2026-05-06 18:23 | -33.24735 | 19.30683 | 19856 ft | 354 kts | 228° |
| 2026-05-06 18:23 | -33.26339 | 19.28455 | 19469 ft | 352 kts | 228° |
| 2026-05-06 18:23 | -33.27938 | 19.26232 | 19084 ft | 351 kts | 228° |
| 2026-05-06 18:24 | -33.29530 | 19.24019 | 18701 ft | 350 kts | 228° |
| 2026-05-06 18:24 | -33.31091 | 19.21847 | 18289 ft | 348 kts | 228° |
| 2026-05-06 18:24 | -33.32664 | 19.19654 | 17889 ft | 345 kts | 228° |
| 2026-05-06 18:24 | -33.34125 | 19.17615 | 17536 ft | 342 kts | 228° |
| 2026-05-06 18:25 | -33.35676 | 19.15451 | 17158 ft | 340 kts | 227° |
| 2026-05-06 18:25 | -33.37211 | 19.13308 | 16786 ft | 338 kts | 227° |
| 2026-05-06 18:25 | -33.38738 | 19.11176 | 16406 ft | 336 kts | 227° |
| 2026-05-06 18:25 | -33.40254 | 19.09058 | 16027 ft | 334 kts | 227° |
| 2026-05-06 18:26 | -33.41748 | 19.06970 | 15636 ft | 333 kts | 227° |
| 2026-05-06 18:26 | -33.43251 | 19.04870 | 15264 ft | 331 kts | 226° |
| 2026-05-06 18:26 | -33.44744 | 19.02780 | 14889 ft | 329 kts | 226° |
| 2026-05-06 18:26 | -33.46234 | 19.00695 | 14505 ft | 328 kts | 226° |
| 2026-05-06 18:27 | -33.47667 | 18.98541 | 14129 ft | 338 kts | 234° |
| 2026-05-06 18:27 | -33.48732 | 18.95989 | 13724 ft | 343 kts | 242° |
| 2026-05-06 18:27 | -33.49669 | 18.93365 | 13315 ft | 341 kts | 244° |
| 2026-05-06 18:27 | -33.50580 | 18.90740 | 12878 ft | 340 kts | 244° |
| 2026-05-06 18:28 | -33.51487 | 18.88118 | 12453 ft | 338 kts | 244° |
| 2026-05-06 18:28 | -33.52385 | 18.85522 | 12058 ft | 337 kts | 244° |
| 2026-05-06 18:28 | -33.53282 | 18.82930 | 11644 ft | 335 kts | 244° |
| 2026-05-06 18:28 | -33.54173 | 18.80353 | 11146 ft | 333 kts | 244° |
| 2026-05-06 18:29 | -33.55061 | 18.77791 | 10740 ft | 332 kts | 244° |
| 2026-05-06 18:29 | -33.55938 | 18.75266 | 10368 ft | 331 kts | 244° |
| 2026-05-06 18:29 | -33.56816 | 18.72740 | 9968 ft | 320 kts | 244° |
| 2026-05-06 18:29 | -33.57645 | 18.70340 | 9533 ft | 302 kts | 244° |
| 2026-05-06 18:30 | -33.58420 | 18.68064 | 9111 ft | 286 kts | 243° |
| 2026-05-06 18:30 | -33.59398 | 18.66067 | 8636 ft | 273 kts | 223° |
| 2026-05-06 18:30 | -33.60785 | 18.64540 | 7920 ft | 270 kts | 215° |
| 2026-05-06 18:30 | -33.62252 | 18.63150 | 7186 ft | 267 kts | 214° |
| 2026-05-06 18:31 | -33.63725 | 18.61791 | 6480 ft | 265 kts | 213° |
| 2026-05-06 18:31 | -33.65180 | 18.60450 | 5759 ft | 262 kts | 213° |
| 2026-05-06 18:31 | -33.66612 | 18.59126 | 5197 ft | 255 kts | 213° |
| 2026-05-06 18:31 | -33.67972 | 18.57850 | 5092 ft | 253 kts | 213° |
| 2026-05-06 18:32 | -33.69392 | 18.56550 | 5150 ft | 257 kts | 208° |
| 2026-05-06 18:32 | -33.70997 | 18.55671 | 5164 ft | 252 kts | 196° |
| 2026-05-06 18:32 | -33.72666 | 18.55003 | 4708 ft | 255 kts | 194° |
| 2026-05-06 18:32 | -33.74350 | 18.54378 | 4260 ft | 248 kts | 193° |
| 2026-05-06 18:33 | -33.76009 | 18.53989 | 3653 ft | 241 kts | 178° |
| 2026-05-06 18:33 | -33.77636 | 18.54186 | 3201 ft | 226 kts | 167° |
| 2026-05-06 18:33 | -33.79104 | 18.54606 | 2975 ft | 205 kts | 163° |
| 2026-05-06 18:33 | -33.80372 | 18.55020 | 2985 ft | 179 kts | 162° |
| 2026-05-06 18:34 | -33.81507 | 18.55394 | 2954 ft | 158 kts | 162° |
| 2026-05-06 18:34 | -33.82491 | 18.55710 | 2926 ft | 134 kts | 162° |
| 2026-05-06 18:34 | -33.83372 | 18.55992 | 2900 ft | 130 kts | 161° |
| 2026-05-06 18:34 | -33.84244 | 18.56272 | 2736 ft | 129 kts | 161° |
| 2026-05-06 18:35 | -33.85113 | 18.56549 | 2537 ft | 129 kts | 161° |
| 2026-05-06 18:35 | -33.85982 | 18.56826 | 2345 ft | 129 kts | 162° |
| 2026-05-06 18:35 | -33.86853 | 18.57104 | 2154 ft | 129 kts | 164° |
| 2026-05-06 18:35 | -33.87718 | 18.57378 | 1972 ft | 129 kts | 163° |
| 2026-05-06 18:36 | -33.88584 | 18.57650 | 1799 ft | 127 kts | 162° |
| 2026-05-06 18:36 | -33.89426 | 18.57920 | 1606 ft | 127 kts | 163° |
| 2026-05-06 18:36 | -33.90292 | 18.58196 | 1427 ft | 130 kts | 163° |
| 2026-05-06 18:36 | -33.91163 | 18.58473 | 1242 ft | 129 kts | 164° |
| 2026-05-06 18:37 | -33.92028 | 18.58753 | 1045 ft | 129 kts | 164° |
| 2026-05-06 18:37 | -33.92888 | 18.59022 | 783 ft | 127 kts | 165° |
| 2026-05-06 18:37 | -33.93752 | 18.59293 | 587 ft | 129 kts | 165° |
| 2026-05-06 18:37 | -33.94621 | 18.59586 | 434 ft | 129 kts | 173° |
| 2026-05-06 18:38 | -33.95485 | 18.59862 | 281 ft | 128 kts | 169° |
| 2026-05-06 18:38 | -33.96319 | 18.60126 | 166 ft | 119 kts | 168° |
| 2026-05-06 18:38 | -33.96856 | 18.60283 | 167 ft | 52 kts | 165° |
| 2026-05-06 18:38 | -33.97064 | 18.60348 | 165 ft | 11 kts | 166° |
| 2026-05-06 18:39 | -33.97250 | 18.60408 | 161 ft | 53 kts | 165° |
| 2026-05-06 18:39 | -33.97622 | 18.60525 | 160 ft | 47 kts | 165° |
| 2026-05-06 18:39 | -33.97770 | 18.60533 | 163 ft | 13 kts | 233° |
| 2026-05-06 18:40 | -33.97751 | 18.60337 | 165 ft | 10 kts | 285° |
| 2026-05-06 18:40 | -33.97723 | 18.60230 | 165 ft | 18 kts | 300° |
| 2026-05-06 18:40 | -33.97608 | 18.60143 | 165 ft | 16 kts | 338° |
| 2026-05-06 18:40 | -33.97498 | 18.60087 | 165 ft | 19 kts | 339° |
| 2026-05-06 18:41 | -33.97369 | 18.60039 | 165 ft | 19 kts | 345° |
| 2026-05-06 18:41 | -33.97236 | 18.59997 | 165 ft | 19 kts | 346° |
| 2026-05-06 18:41 | -33.97141 | 18.59969 | 165 ft | 9 kts | 348° |
| 2026-05-06 18:41 | -33.97065 | 18.59952 | 165 ft | 14 kts | 349° |
| 2026-05-06 18:42 | -33.96961 | 18.59920 | 165 ft | 13 kts | 345° |
| 2026-05-06 18:42 | -33.96891 | 18.59897 | 165 ft | 8 kts | 345° |
| 2026-05-06 18:42 | -33.96849 | 18.59884 | 165 ft | 5 kts | 345° |
| 2026-05-06 18:42 | -33.96821 | 18.59852 | 165 ft | 6 kts | 273° |
| 2026-05-06 18:43 | -33.96824 | 18.59824 | 165 ft | 3 kts | 257° |
| 2026-05-06 18:43 | -33.96830 | 18.59792 | 165 ft | 3 kts | 256° |
| 2026-05-06 18:43 | -33.96832 | 18.59786 | 165 ft | 0 kts | 256° |